Archival Weather

Salzburg

Salzburg, Austria (LOWS)

Report from: Friday, May 26, 2023 11:20 AM CEST
Current time: Tuesday, July 16, 2024 5:29 PM CEST

Current weather – Weather history – Daily summaries
Weather forecast

Temperature20.0°C (68.0°F)
Dew point14.0°C (57.2°F)
Winds 4 kts (2.1 m/s, 4.6 mph) Vrb
Winds variableWinds variable from West (270°) to North (10°)
Visibility6.2 mi. (10 km)
Clouds Few clouds 6,000 ft. (1,829 m)
Altimeter30.21 in.Hg (1023 mB)
Relative humidity68 %
Density altitude479 ft. (146 m)
Remarks Fully automated report
No significant changes expected in the next two hours
Flight conditions Visual Meteorological Conditions
Raw dataLOWS 260920Z AUTO 32004KT 270V010 9999 FEW060 20/14 Q1023 NOSIG
An error has occurred. This application may no longer respond until reloaded. Reload 🗙